Time;durP1;ratioP1;P1;durP2;ratioP2;P2;SDS_P1;SDS_P2;PMS_P1;PMS_P2;Temp;Humidity;BMP_temperature;BMP_pressure;BME280_temperature;BME280_humidity;BME280_pressure;Samples;Min_cycle;Max_cycle;Signal;HPM_P1;HPM_P2
2021/08/10 00:00:36;;;;;;;12.07;8.10;;;13.70;91.40;;;;;;5074226;28;20199;-91
2021/08/10 00:03:02;;;;;;;15.70;8.87;;;13.70;91.40;;;;;;5074628;28;20203;-91
2021/08/10 00:05:28;;;;;;;13.07;8.77;;;13.70;91.40;;;;;;5075249;28;20194;-91
2021/08/10 00:07:53;;;;;;;17.27;8.53;;;13.80;91.40;;;;;;5074699;28;20229;-91
2021/08/10 00:10:19;;;;;;;14.20;7.80;;;13.80;91.40;;;;;;5074559;28;20630;-89
2021/08/10 00:12:45;;;;;;;11.23;8.60;;;13.80;91.30;;;;;;5056172;28;20647;-90
2021/08/10 00:15:11;;;;;;;15.73;9.07;;;13.80;91.20;;;;;;5073725;28;20250;-89
2021/08/10 00:17:37;;;;;;;16.10;9.67;;;13.80;91.20;;;;;;5073670;28;20178;-90
2021/08/10 00:20:04;;;;;;;16.33;9.53;;;13.80;91.20;;;;;;5056286;28;20199;-89
2021/08/10 00:22:29;;;;;;;14.73;9.47;;;13.80;91.20;;;;;;5073563;28;20205;-89
2021/08/10 00:24:55;;;;;;;14.60;8.00;;;13.80;91.30;;;;;;5073670;28;20246;-90
2021/08/10 00:27:21;;;;;;;13.30;7.90;;;13.80;91.30;;;;;;5073056;28;20175;-90
2021/08/10 00:29:46;;;;;;;17.50;7.57;;;13.80;91.40;;;;;;5073339;28;20191;-90
2021/08/10 00:32:12;;;;;;;15.77;8.63;;;13.80;91.50;;;;;;5073490;28;20175;-90
2021/08/10 00:34:38;;;;;;;16.33;8.40;;;13.70;91.70;;;;;;5073424;28;20545;-90
2021/08/10 00:37:05;;;;;;;21.07;8.20;;;13.60;91.80;;;;;;5073429;28;20175;-90
2021/08/10 00:39:30;;;;;;;12.57;7.97;;;13.60;91.80;;;;;;5073331;28;20234;-90
2021/08/10 00:41:56;;;;;;;15.50;8.00;;;13.60;92.00;;;;;;5055504;28;20175;-90
2021/08/10 00:44:22;;;;;;;15.30;8.13;;;13.60;92.00;;;;;;5055637;28;20563;-90
2021/08/10 00:46:48;;;;;;;14.90;8.50;;;13.60;92.10;;;;;;5073493;28;20175;-90
2021/08/10 00:49:13;;;;;;;17.03;8.63;;;13.60;92.20;;;;;;5073576;28;20270;-90
2021/08/10 00:51:39;;;;;;;13.57;7.97;;;13.60;92.20;;;;;;5055424;28;20203;-90
2021/08/10 00:54:05;;;;;;;16.70;8.80;;;13.70;92.30;;;;;;5055550;28;20183;-90
2021/08/10 00:56:32;;;;;;;14.57;8.23;;;13.60;92.20;;;;;;5073478;28;20702;-90
2021/08/10 00:59:02;;;;;;;12.10;8.43;;;13.60;92.20;;;;;;5073142;28;20163;-90
2021/08/10 01:01:28;;;;;;;16.10;10.00;;;13.60;92.20;;;;;;5073256;28;20258;-89
2021/08/10 01:03:53;;;;;;;16.33;8.37;;;13.70;92.10;;;;;;5073118;28;20297;-90
2021/08/10 01:06:31;;;;;;;16.47;9.20;;;13.70;92.10;;;;;;5073116;28;20179;-90
2021/08/10 01:09:06;;;;;;;13.07;8.27;;;13.60;92.00;;;;;;5073118;28;20167;-89
2021/08/10 01:11:41;;;;;;;15.30;7.60;;;13.60;91.90;;;;;;5055104;28;20230;-89
2021/08/10 01:14:24;;;;;;;12.80;7.60;;;13.60;91.80;;;;;;5055201;28;20250;-89
2021/08/10 01:17:18;;;;;;;13.40;8.00;;;13.60;91.80;;;;;;5055114;28;20535;-89
2021/08/10 01:19:59;;;;;;;13.17;6.83;;;13.60;91.60;;;;;;5072959;28;20194;-90
2021/08/10 01:22:27;;;;;;;9.87;6.97;;;13.50;91.50;;;;;;5073259;28;20675;-90
2021/08/10 01:25:21;;;;;;;11.47;8.20;;;13.60;91.50;;;;;;5072855;28;20175;-89
2021/08/10 01:27:50;;;;;;;12.27;7.97;;;13.60;91.50;;;;;;5072962;28;20164;-89
2021/08/10 01:30:27;;;;;;;9.43;7.27;;;13.60;91.40;;;;;;5072791;28;20199;-89
2021/08/10 01:32:53;;;;;;;12.47;7.73;;;13.50;91.40;;;;;;5073007;28;20222;-90
2021/08/10 01:35:20;;;;;;;12.37;7.83;;;13.50;91.30;;;;;;5072771;28;20168;-90
2021/08/10 01:37:50;;;;;;;10.43;6.33;;;13.50;91.40;;;;;;5073324;28;20176;-90
2021/08/10 01:40:17;;;;;;;14.13;7.10;;;13.50;91.40;;;;;;5076593;28;20685;-89
2021/08/10 01:42:43;;;;;;;15.03;7.27;;;13.60;91.40;;;;;;5058674;28;20190;-90
2021/08/10 01:45:11;;;;;;;9.10;5.87;;;13.50;91.20;;;;;;5076831;28;20258;-89
2021/08/10 01:47:39;;;;;;;12.17;6.63;;;13.60;91.20;;;;;;5076446;28;20182;-90
2021/08/10 01:50:06;;;;;;;11.17;6.33;;;13.50;91.00;;;;;;5076457;28;20234;-90
2021/08/10 01:52:32;;;;;;;9.03;5.90;;;13.60;91.00;;;;;;5076695;28;20632;-90
2021/08/10 01:54:58;;;;;;;11.27;6.00;;;13.70;91.00;;;;;;5076552;28;20158;-89
2021/08/10 01:57:26;;;;;;;9.03;6.23;;;13.60;90.70;;;;;;5076610;28;20195;-89
2021/08/10 01:59:54;;;;;;;12.67;6.37;;;13.60;90.60;;;;;;5076303;28;20562;-90
2021/08/10 02:02:20;;;;;;;8.50;5.67;;;13.60;90.60;;;;;;5076305;28;20194;-90
2021/08/10 02:04:48;;;;;;;11.47;5.37;;;13.60;90.40;;;;;;5076319;28;20182;-90
2021/08/10 02:07:14;;;;;;;8.03;5.30;;;13.50;90.30;;;;;;5076195;28;20180;-90
2021/08/10 02:09:40;;;;;;;14.10;5.87;;;13.50;90.40;;;;;;5076132;28;20601;-89
2021/08/10 02:12:08;;;;;;;6.43;4.70;;;13.50;90.30;;;;;;5075960;28;20606;-90
2021/08/10 02:14:36;;;;;;;7.40;5.37;;;13.50;90.20;;;;;;5075975;28;20174;-90
2021/08/10 02:17:05;;;;;;;9.77;6.03;;;13.50;90.10;;;;;;5075921;28;20213;-90
2021/08/10 02:19:33;;;;;;;8.43;6.10;;;13.40;90.30;;;;;;5075881;28;20195;-89
2021/08/10 02:22:06;;;;;;;14.57;5.87;;;13.50;90.40;;;;;;5076444;28;20171;-90
2021/08/10 02:24:53;;;;;;;20.47;5.33;;;13.40;90.40;;;;;;5075964;28;20195;-90
2021/08/10 02:27:33;;;;;;;9.30;5.13;;;13.40;90.40;;;;;;5076036;28;20164;-89
2021/08/10 02:30:05;;;;;;;16.90;5.83;;;13.30;90.30;;;;;;5057767;28;20678;-90
2021/08/10 02:32:31;;;;;;;20.77;6.50;;;13.40;90.30;;;;;;5075802;28;20179;-89
2021/08/10 02:34:59;;;;;;;27.63;6.27;;;13.40;90.40;;;;;;5057690;28;20179;-90
2021/08/10 02:37:25;;;;;;;16.43;6.13;;;13.30;90.30;;;;;;5075577;28;20178;-90
2021/08/10 02:39:53;;;;;;;10.70;6.03;;;13.30;90.40;;;;;;5075475;28;20659;-90
2021/08/10 02:42:23;;;;;;;22.77;6.83;;;13.30;90.50;;;;;;5075480;28;20168;-89
2021/08/10 02:44:51;;;;;;;17.87;6.63;;;13.30;90.70;;;;;;5057575;28;20187;-89
2021/08/10 02:47:18;;;;;;;23.03;6.53;;;13.30;90.80;;;;;;5075346;28;20190;-90
2021/08/10 02:49:44;;;;;;;21.20;8.27;;;13.30;90.90;;;;;;5074862;28;20277;-90
2021/08/10 02:52:11;;;;;;;18.30;6.87;;;13.30;91.00;;;;;;5075252;28;20634;-90
2021/08/10 02:54:38;;;;;;;18.33;6.73;;;13.20;91.20;;;;;;5075416;28;20254;-90
2021/08/10 02:57:21;;;;;;;28.30;7.63;;;13.20;91.30;;;;;;5075225;28;20168;-90
2021/08/10 03:00:11;;;;;;;36.27;7.57;;;13.20;91.30;;;;;;5075119;28;20282;-89
2021/08/10 03:02:46;;;;;;;13.93;6.10;;;13.20;91.30;;;;;;5075394;28;20194;-90
2021/08/10 03:05:15;;;;;;;15.20;7.27;;;13.20;91.40;;;;;;5075104;28;20635;-89
2021/08/10 03:07:51;;;;;;;12.87;6.43;;;13.30;91.30;;;;;;5057098;28;20232;-89
2021/08/10 03:10:17;;;;;;;18.27;6.90;;;13.30;91.30;;;;;;5057305;28;20628;-89
2021/08/10 03:12:47;;;;;;;15.50;7.00;;;13.40;91.30;;;;;;5075431;28;20228;-89
2021/08/10 03:15:14;;;;;;;14.57;6.73;;;13.30;91.30;;;;;;5075441;28;20532;-90
2021/08/10 03:17:42;;;;;;;13.77;6.50;;;13.30;91.30;;;;;;5074815;28;20180;-90
2021/08/10 03:20:09;;;;;;;15.87;6.67;;;13.30;91.20;;;;;;5074790;28;20686;-89
2021/08/10 03:22:37;;;;;;;13.13;6.73;;;13.30;91.20;;;;;;5074712;28;20540;-90
2021/08/10 03:25:05;;;;;;;11.70;7.00;;;13.30;91.20;;;;;;5074729;28;20217;-89
2021/08/10 03:27:32;;;;;;;15.53;7.50;;;13.40;91.10;;;;;;5074961;28;20168;-89
2021/08/10 03:29:58;;;;;;;14.67;6.63;;;13.30;91.10;;;;;;5074359;28;20203;-90
2021/08/10 03:32:24;;;;;;;7.37;6.27;;;13.30;91.10;;;;;;5074480;28;20182;-89
2021/08/10 03:34:52;;;;;;;13.20;6.53;;;13.40;91.10;;;;;;5074741;28;20186;-89
2021/08/10 03:37:19;;;;;;;10.33;6.30;;;13.40;91.00;;;;;;5074716;28;20173;-90
2021/08/10 03:39:45;;;;;;;13.23;6.80;;;13.40;91.00;;;;;;5074271;28;20187;-90
2021/08/10 03:42:12;;;;;;;17.23;7.13;;;13.30;90.90;;;;;;5074332;28;20189;-90
2021/08/10 03:44:42;;;;;;;8.43;6.10;;;13.30;91.10;;;;;;5074817;28;20176;-90
2021/08/10 03:47:16;;;;;;;10.13;6.30;;;13.30;91.20;;;;;;5075084;28;20170;-90
2021/08/10 03:49:45;;;;;;;12.10;6.70;;;13.30;91.30;;;;;;5074007;28;20188;-89
2021/08/10 03:52:13;;;;;;;18.37;6.73;;;13.30;91.30;;;;;;5073984;28;20199;-90
2021/08/10 03:54:39;;;;;;;9.93;6.60;;;13.30;91.40;;;;;;5074095;28;20179;-90
2021/08/10 03:57:06;;;;;;;12.67;6.90;;;13.30;91.40;;;;;;5074029;28;20518;-89
2021/08/10 03:59:33;;;;;;;9.13;7.33;;;13.40;91.50;;;;;;5074216;28;20719;-89
2021/08/10 04:02:00;;;;;;;10.73;7.17;;;13.30;91.50;;;;;;5073205;28;20168;-89
2021/08/10 04:04:26;;;;;;;10.57;7.33;;;13.30;91.70;;;;;;5073856;28;20168;-90
2021/08/10 04:06:54;;;;;;;16.47;7.50;;;13.30;91.70;;;;;;5073804;28;20213;-90
2021/08/10 04:09:21;;;;;;;17.73;7.10;;;13.30;92.00;;;;;;5073613;28;20214;-90
2021/08/10 04:11:48;;;;;;;10.80;6.67;;;13.30;92.00;;;;;;5055843;28;20285;-90
2021/08/10 04:14:14;;;;;;;11.63;7.70;;;13.40;92.00;;;;;;5073676;28;20171;-90
2021/08/10 04:17:05;;;;;;;9.47;7.67;;;13.40;91.90;;;;;;5055777;28;20266;-90
2021/08/10 04:19:33;;;;;;;13.73;8.23;;;13.30;91.90;;;;;;5063624;28;20203;-90
2021/08/10 04:21:59;;;;;;;13.40;7.57;;;13.40;92.00;;;;;;5055814;28;20604;-90
2021/08/10 04:24:25;;;;;;;12.17;7.43;;;13.30;92.10;;;;;;5073590;28;20167;-89
2021/08/10 04:26:51;;;;;;;15.77;8.07;;;13.30;92.20;;;;;;5073629;28;20175;-90
2021/08/10 04:29:17;;;;;;;12.53;7.87;;;13.40;92.40;;;;;;5073494;28;20194;-90
2021/08/10 04:31:43;;;;;;;12.43;7.97;;;13.40;92.40;;;;;;5073444;28;20207;-90
2021/08/10 04:34:08;;;;;;;16.10;7.60;;;13.40;92.40;;;;;;5074491;28;20237;-92
2021/08/10 04:36:35;;;;;;;13.90;7.73;;;13.40;92.40;;;;;;5057144;28;20172;-92
2021/08/10 04:39:00;;;;;;;9.60;7.50;;;13.50;92.40;;;;;;5056268;28;20191;-92
2021/08/10 04:41:27;;;;;;;13.87;8.10;;;13.50;92.50;;;;;;5056157;28;20607;-91
2021/08/10 04:43:54;;;;;;;12.17;7.57;;;13.50;92.50;;;;;;5055947;28;20211;-91
2021/08/10 04:46:22;;;;;;;11.83;7.27;;;13.50;92.50;;;;;;5056454;28;20595;-92
2021/08/10 04:48:48;;;;;;;13.27;7.43;;;13.50;92.50;;;;;;5055897;28;20551;-91
2021/08/10 04:51:14;;;;;;;13.43;8.53;;;13.60;92.50;;;;;;5055889;28;20195;-91
2021/08/10 04:53:40;;;;;;;11.97;8.27;;;13.60;92.60;;;;;;5073975;28;20163;-91
2021/08/10 04:56:07;;;;;;;13.30;8.03;;;13.60;92.60;;;;;;5055813;28;20182;-91
2021/08/10 04:58:33;;;;;;;14.40;8.57;;;13.70;92.60;;;;;;5056076;28;20179;-92
2021/08/10 05:00:59;;;;;;;12.30;8.53;;;13.70;92.60;;;;;;5073368;28;20198;-91
2021/08/10 05:03:25;;;;;;;18.50;8.27;;;13.70;92.70;;;;;;5056026;28;20183;-92
2021/08/10 05:05:51;;;;;;;16.57;8.40;;;13.80;92.70;;;;;;5055678;28;20179;-92
2021/08/10 05:08:16;;;;;;;16.63;8.20;;;13.80;92.60;;;;;;5055564;28;20179;-91
2021/08/10 05:10:43;;;;;;;13.17;8.27;;;13.80;92.60;;;;;;5073329;28;20210;-91
2021/08/10 05:13:09;;;;;;;16.73;7.87;;;13.80;92.70;;;;;;5058589;28;20190;-91
2021/08/10 05:15:36;;;;;;;22.43;8.70;;;13.80;92.70;;;;;;5059831;28;20221;-92
2021/08/10 05:18:02;;;;;;;13.07;8.20;;;13.80;92.70;;;;;;5077569;28;20167;-91
2021/08/10 05:20:28;;;;;;;13.60;8.80;;;13.90;92.70;;;;;;5059989;28;20191;-91
2021/08/10 05:22:54;;;;;;;13.03;8.33;;;13.90;92.70;;;;;;5077216;28;20183;-91
2021/08/10 05:25:20;;;;;;;11.80;8.20;;;13.90;92.70;;;;;;5076962;28;20167;-91
2021/08/10 05:27:45;;;;;;;12.33;8.37;;;13.90;92.60;;;;;;5058986;28;20191;-91
2021/08/10 05:30:12;;;;;;;15.50;8.30;;;13.90;92.70;;;;;;5076871;28;20195;-91
2021/08/10 05:32:37;;;;;;;16.07;8.93;;;14.00;92.70;;;;;;5076872;28;20183;-91
2021/08/10 05:35:03;;;;;;;13.07;8.87;;;14.00;92.70;;;;;;5076946;28;20631;-90
2021/08/10 05:37:29;;;;;;;10.60;7.97;;;14.00;92.70;;;;;;5076831;28;20520;-91
2021/08/10 05:39:54;;;;;;;16.37;9.33;;;14.10;92.70;;;;;;5076823;28;20198;-91
2021/08/10 05:42:20;;;;;;;15.33;9.80;;;14.10;92.70;;;;;;5076804;28;20183;-91
2021/08/10 05:44:46;;;;;;;18.83;9.10;;;14.10;92.70;;;;;;5077030;28;20175;-90
2021/08/10 05:47:12;;;;;;;19.43;9.23;;;14.10;92.70;;;;;;5058872;28;20266;-90
2021/08/10 05:49:37;;;;;;;15.90;9.63;;;14.10;92.80;;;;;;5058603;28;20230;-91
2021/08/10 05:52:04;;;;;;;15.70;9.33;;;14.20;92.80;;;;;;5058520;28;20257;-91
2021/08/10 05:54:30;;;;;;;15.73;9.50;;;14.20;92.80;;;;;;5076658;28;20221;-91
2021/08/10 05:56:55;;;;;;;14.40;9.20;;;14.20;92.80;;;;;;5058637;28;20186;-91
2021/08/10 05:59:21;;;;;;;17.03;9.37;;;14.20;92.80;;;;;;5076576;28;20586;-91
2021/08/10 06:01:47;;;;;;;13.13;9.40;;;14.30;92.80;;;;;;5076551;28;20214;-91
2021/08/10 06:04:12;;;;;;;25.00;9.17;;;14.20;92.70;;;;;;5076442;28;20187;-90
2021/08/10 06:06:38;;;;;;;17.53;9.63;;;14.30;92.70;;;;;;5076273;28;20176;-91
2021/08/10 06:09:05;;;;;;;17.07;9.23;;;14.30;92.70;;;;;;5076028;28;20967;-91
2021/08/10 06:11:32;;;;;;;13.70;9.23;;;14.30;92.70;;;;;;5076245;28;20191;-90
2021/08/10 06:13:57;;;;;;;12.10;8.53;;;14.40;92.80;;;;;;5076434;28;20178;-91
2021/08/10 06:16:23;;;;;;;15.97;9.17;;;14.30;92.70;;;;;;5058210;28;20550;-91
2021/08/10 06:18:49;;;;;;;19.77;8.80;;;14.40;92.60;;;;;;5076180;28;20233;-91
2021/08/10 06:21:15;;;;;;;14.67;9.30;;;14.40;92.60;;;;;;5058253;28;20183;-91
2021/08/10 06:23:40;;;;;;;15.07;9.27;;;14.50;92.60;;;;;;5057245;28;20180;-91
2021/08/10 06:26:06;;;;;;;15.37;9.00;;;14.50;92.60;;;;;;5058171;28;20180;-91
2021/08/10 06:28:32;;;;;;;15.83;9.57;;;14.50;92.60;;;;;;5058153;28;20648;-91
2021/08/10 06:30:58;;;;;;;18.13;8.83;;;14.50;92.60;;;;;;5058113;28;20203;-91
2021/08/10 06:33:24;;;;;;;21.33;9.80;;;14.60;92.60;;;;;;5058003;28;20176;-90
2021/08/10 06:35:50;;;;;;;17.10;9.10;;;14.60;92.60;;;;;;5057920;28;20175;-91
2021/08/10 06:38:15;;;;;;;16.20;9.63;;;14.60;92.70;;;;;;5057738;28;20171;-91
2021/08/10 06:40:41;;;;;;;15.70;9.53;;;14.60;92.70;;;;;;5057591;28;20205;-90
2021/08/10 06:43:09;;;;;;;19.27;9.90;;;14.60;92.70;;;;;;5057796;28;20179;-90
2021/08/10 06:45:35;;;;;;;16.10;9.27;;;14.70;92.60;;;;;;5075548;28;20171;-91
2021/08/10 06:48:01;;;;;;;14.87;9.33;;;14.70;92.50;;;;;;5057497;28;20266;-90
2021/08/10 06:50:27;;;;;;;21.57;11.13;;;14.80;92.60;;;;;;5057389;28;20233;-90
2021/08/10 06:52:53;;;;;;;13.03;9.27;;;14.80;92.60;;;;;;5057471;28;20180;-91
2021/08/10 06:55:19;;;;;;;16.20;9.93;;;14.80;92.60;;;;;;5057616;28;20237;-91
2021/08/10 06:57:44;;;;;;;18.37;10.10;;;14.90;92.60;;;;;;5057405;28;20229;-91
2021/08/10 07:00:11;;;;;;;14.77;9.60;;;14.90;92.60;;;;;;5057730;28;20195;-89
2021/08/10 07:02:36;;;;;;;12.50;9.30;;;15.00;92.60;;;;;;5075259;28;20251;-91
2021/08/10 07:05:03;;;;;;;18.83;10.43;;;15.00;92.50;;;;;;5057209;28;20269;-91
2021/08/10 07:07:28;;;;;;;15.07;9.63;;;15.10;92.60;;;;;;5057579;28;20639;-90
2021/08/10 07:09:54;;;;;;;14.17;9.10;;;15.00;92.50;;;;;;5074999;28;20255;-90
2021/08/10 07:12:20;;;;;;;19.73;10.73;;;15.10;92.40;;;;;;5075055;28;20207;-91
2021/08/10 07:14:46;;;;;;;15.90;9.80;;;15.10;92.30;;;;;;5075101;28;20253;-91
2021/08/10 07:17:11;;;;;;;19.20;10.10;;;15.10;92.20;;;;;;5057205;28;20328;-91
2021/08/10 07:19:37;;;;;;;19.27;10.33;;;15.20;92.30;;;;;;5057172;28;20188;-90
2021/08/10 07:22:03;;;;;;;13.60;9.67;;;15.20;92.30;;;;;;5057104;28;20557;-91
2021/08/10 07:24:29;;;;;;;13.27;9.17;;;15.20;91.90;;;;;;5057290;28;20575;-91
2021/08/10 07:26:55;;;;;;;19.03;9.77;;;15.30;91.80;;;;;;5074782;28;20666;-91
2021/08/10 07:29:20;;;;;;;14.07;10.30;;;15.30;91.90;;;;;;5056847;28;20213;-91
2021/08/10 07:31:46;;;;;;;26.63;10.90;;;15.30;92.00;;;;;;5074543;28;20195;-91
2021/08/10 07:34:12;;;;;;;16.33;10.83;;;15.40;92.20;;;;;;5056635;28;20179;-91
2021/08/10 07:36:38;;;;;;;18.02;10.68;;;15.40;91.90;;;;;;5056668;28;20171;-91
2021/08/10 07:39:05;;;;;;;16.50;10.13;;;15.40;91.90;;;;;;5074473;28;20195;-91
2021/08/10 07:41:31;;;;;;;15.38;10.02;;;15.50;91.90;;;;;;5056573;28;20788;-91
2021/08/10 07:43:57;;;;;;;17.63;11.13;;;15.80;92.30;;;;;;5056470;28;20171;-92
2021/08/10 07:46:23;;;;;;;19.90;10.38;;;16.00;92.60;;;;;;5074305;28;20331;-91
2021/08/10 07:48:50;;;;;;;15.73;9.52;;;16.00;91.40;;;;;;5074285;28;20178;-91
2021/08/10 07:51:16;;;;;;;17.35;9.07;;;15.80;90.80;;;;;;5074381;28;20187;-90
2021/08/10 07:53:42;;;;;;;13.05;9.13;;;15.80;90.60;;;;;;5074320;28;20210;-91
2021/08/10 07:56:08;;;;;;;13.30;8.73;;;16.00;91.00;;;;;;5074092;28;20187;-91
2021/08/10 07:58:34;;;;;;;14.73;9.48;;;16.10;90.90;;;;;;5074326;28;20171;-88
2021/08/10 08:00:59;;;;;;;15.32;9.65;;;16.20;90.50;;;;;;5057220;28;20195;-89
2021/08/10 08:03:25;;;;;;;16.95;9.00;;;16.20;90.60;;;;;;5074030;28;20631;-89
2021/08/10 08:05:51;;;;;;;23.88;9.15;;;16.20;90.50;;;;;;5073940;28;20262;-88
2021/08/10 08:08:17;;;;;;;11.85;8.20;;;16.30;90.80;;;;;;5074522;28;20182;-89
2021/08/10 08:10:43;;;;;;;15.77;9.00;;;16.20;89.90;;;;;;5055954;28;20214;-89
2021/08/10 08:13:08;;;;;;;12.20;8.77;;;16.30;90.30;;;;;;5074105;28;20176;-89
2021/08/10 08:15:34;;;;;;;11.95;8.10;;;16.40;90.50;;;;;;5055977;28;20179;-90
2021/08/10 08:18:01;;;;;;;12.43;8.30;;;16.40;89.90;;;;;;5073716;28;20174;-91
2021/08/10 08:20:27;;;;;;;14.90;7.65;;;16.60;89.60;;;;;;5073636;28;20191;-89
2021/08/10 08:22:53;;;;;;;13.43;8.38;;;16.60;89.20;;;;;;5073949;28;20198;-89
2021/08/10 08:25:18;;;;;;;17.02;9.68;;;16.60;89.10;;;;;;5073727;28;20203;-89
2021/08/10 08:27:45;;;;;;;13.80;8.05;;;16.70;88.90;;;;;;5073899;28;20174;-89
2021/08/10 08:30:14;;;;;;;13.68;7.75;;;16.80;88.90;;;;;;5055533;28;20199;-89
2021/08/10 08:32:39;;;;;;;11.90;8.23;;;16.90;89.30;;;;;;5073661;28;20171;-87
2021/08/10 08:35:05;;;;;;;9.80;7.25;;;17.00;88.90;;;;;;5073617;28;20234;-89
2021/08/10 08:37:32;;;;;;;14.15;7.60;;;17.20;87.90;;;;;;5055793;28;20172;-89
2021/08/10 08:39:58;;;;;;;14.60;8.07;;;17.30;87.40;;;;;;5073413;28;20217;-89
2021/08/10 08:42:23;;;;;;;11.30;7.82;;;17.50;86.90;;;;;;5055621;28;20228;-88
2021/08/10 08:44:49;;;;;;;10.80;8.02;;;17.60;87.30;;;;;;5073493;28;20178;-89
2021/08/10 08:47:20;;;;;;;14.40;8.43;;;17.60;86.80;;;;;;5073161;28;20562;-88
2021/08/10 08:49:48;;;;;;;15.23;8.23;;;17.60;86.00;;;;;;5073479;28;20191;-87
2021/08/10 08:52:17;;;;;;;16.80;7.57;;;17.50;86.70;;;;;;5073317;28;20690;-88
2021/08/10 08:54:43;;;;;;;13.95;7.78;;;17.40;86.20;;;;;;5055900;28;20262;-88
2021/08/10 08:57:09;;;;;;;12.98;7.28;;;17.30;86.20;;;;;;5073355;28;20178;-88
2021/08/10 08:59:39;;;;;;;12.00;7.78;;;17.30;86.50;;;;;;5055527;28;20199;-88
2021/08/10 09:02:05;;;;;;;13.68;7.00;;;17.30;85.80;;;;;;5073264;28;20178;-88
2021/08/10 09:04:30;;;;;;;9.20;6.55;;;17.30;85.40;;;;;;5073155;28;20172;-89
2021/08/10 09:06:56;;;;;;;14.02;7.68;;;17.30;86.60;;;;;;5055450;28;20225;-88
2021/08/10 09:09:32;;;;;;;13.02;7.65;;;17.20;86.00;;;;;;5073130;28;20203;-87
2021/08/10 09:12:00;;;;;;;15.05;7.70;;;17.20;86.40;;;;;;5055537;28;20195;-88
2021/08/10 09:14:48;;;;;;;14.70;8.07;;;17.30;86.00;;;;;;5055447;28;20631;-88
2021/08/10 09:17:21;;;;;;;11.88;6.88;;;17.70;86.80;;;;;;5055611;28;20213;-88
2021/08/10 09:19:57;;;;;;;11.20;5.70;;;18.20;84.00;;;;;;5055470;28;20675;-88
2021/08/10 09:22:27;;;;;;;15.70;6.10;;;18.20;82.90;;;;;;5073736;28;20183;-88
2021/08/10 09:25:04;;;;;;;11.65;6.18;;;18.00;83.00;;;;;;5055847;28;20178;-88
2021/08/10 09:27:39;;;;;;;9.13;6.28;;;17.80;82.60;;;;;;5080028;23;20238;-87
2021/08/10 09:30:13;;;;;;;14.80;5.88;;;18.10;83.50;;;;;;5075574;28;20167;-88
2021/08/10 09:32:51;;;;;;;11.65;6.22;;;18.30;82.60;;;;;;5074707;28;20648;-88
2021/08/10 09:35:18;;;;;;;8.38;5.97;;;18.40;82.20;;;;;;5073473;28;20178;-87
2021/08/10 09:38:06;;;;;;;17.60;6.07;;;18.60;80.00;;;;;;5074415;28;20191;-88
2021/08/10 09:40:40;;;;;;;9.88;5.75;;;18.70;80.40;;;;;;5056305;28;20174;-87
2021/08/10 09:43:29;;;;;;;8.48;5.40;;;19.10;80.90;;;;;;5074254;28;20170;-87
2021/08/10 09:46:15;;;;;;;9.25;5.22;;;19.20;78.70;;;;;;5056279;28;20176;-87
2021/08/10 09:48:42;;;;;;;10.32;5.35;;;19.40;78.10;;;;;;5074569;28;20191;-86
2021/08/10 09:51:21;;;;;;;9.05;5.80;;;19.20;76.50;;;;;;5056308;28;20202;-87
2021/08/10 09:54:04;;;;;;;9.25;5.50;;;19.10;76.90;;;;;;5073800;28;20179;-87
2021/08/10 09:56:55;;;;;;;10.80;5.70;;;19.20;78.50;;;;;;5073385;28;20162;-87
2021/08/10 09:59:27;;;;;;;9.00;5.43;;;19.00;78.80;;;;;;5056545;28;20164;-87
2021/08/10 10:01:57;;;;;;;8.27;4.72;;;19.10;79.00;;;;;;5076747;28;20172;-87
2021/08/10 10:04:27;;;;;;;7.45;5.00;;;19.10;78.20;;;;;;5058983;28;20237;-88
2021/08/10 10:06:58;;;;;;;10.55;5.57;;;19.00;77.00;;;;;;5058590;28;20285;-85
2021/08/10 10:09:26;;;;;;;12.02;5.00;;;19.10;77.80;;;;;;5058555;28;20244;-85
2021/08/10 10:11:55;;;;;;;9.02;4.90;;;18.90;77.00;;;;;;5076087;28;20191;-86
2021/08/10 10:14:22;;;;;;;9.82;5.13;;;18.90;78.00;;;;;;5076006;28;20174;-86
2021/08/10 10:16:51;;;;;;;9.27;5.07;;;18.80;77.30;;;;;;5058022;28;20168;-85
2021/08/10 10:19:20;;;;;;;14.98;7.10;;;18.80;76.40;;;;;;5058271;28;20268;-86
2021/08/10 10:21:47;;;;;;;14.20;7.07;;;18.70;77.00;;;;;;5076093;28;20547;-86
2021/08/10 10:24:15;;;;;;;13.55;6.03;;;18.90;78.20;;;;;;5075996;28;20256;-86
2021/08/10 10:26:52;;;;;;;12.65;7.55;;;18.90;76.80;;;;;;5076588;28;20251;-87
2021/08/10 10:29:17;;;;;;;10.73;6.03;;;18.80;77.00;;;;;;5059161;28;20182;-86
2021/08/10 10:31:44;;;;;;;6.97;5.57;;;18.70;77.50;;;;;;5078133;28;20196;-86
2021/08/10 10:34:13;;;;;;;10.13;6.65;;;18.30;78.70;;;;;;5059409;28;20175;-86
2021/08/10 10:36:42;;;;;;;12.98;7.47;;;17.90;81.70;;;;;;5076830;28;20246;-86
2021/08/10 10:39:09;;;;;;;15.40;8.73;;;17.70;83.50;;;;;;5077337;28;20236;-85
2021/08/10 10:41:36;;;;;;;10.25;7.18;;;17.60;85.00;;;;;;5076151;28;20517;-87
2021/08/10 10:44:02;;;;;;;10.75;8.23;;;17.50;84.00;;;;;;5057592;28;20524;-88
2021/08/10 10:46:32;;;;;;;12.77;10.05;;;17.40;85.10;;;;;;5075633;28;20563;-88
2021/08/10 10:48:59;;;;;;;18.77;11.75;;;17.30;85.90;;;;;;5075616;28;20270;-88
2021/08/10 10:51:30;;;;;;;14.25;11.18;;;17.00;87.30;;;;;;5057387;28;20247;-87
2021/08/10 10:54:25;;;;;;;16.70;12.80;;;16.70;87.80;;;;;;5057631;28;20186;-87
2021/08/10 10:56:55;;;;;;;15.60;12.30;;;16.60;88.50;;;;;;5057650;28;20160;-87
2021/08/10 10:59:23;;;;;;;16.40;12.93;;;16.70;89.00;;;;;;5057560;28;20262;-87
2021/08/10 11:01:49;;;;;;;15.15;12.05;;;16.70;89.10;;;;;;5057542;28;20171;-87
2021/08/10 11:04:15;;;;;;;17.77;10.68;;;16.70;89.60;;;;;;5075860;28;20172;-87
2021/08/10 11:06:44;;;;;;;12.38;9.63;;;16.70;88.80;;;;;;5057670;28;20190;-87
2021/08/10 11:09:36;;;;;;;12.07;8.85;;;16.60;88.70;;;;;;5057698;28;20244;-87
2021/08/10 11:12:02;;;;;;;15.30;10.23;;;16.90;89.70;;;;;;5057378;28;20199;-87
2021/08/10 11:14:37;;;;;;;13.50;9.90;;;17.20;90.00;;;;;;5058602;28;20155;-88
2021/08/10 11:17:10;;;;;;;10.63;9.60;;;17.70;89.40;;;;;;5075693;28;20159;-86
2021/08/10 11:19:37;;;;;;;11.13;9.45;;;17.70;88.40;;;;;;5074846;28;20577;-86
2021/08/10 11:22:15;;;;;;;9.57;7.70;;;17.40;87.90;;;;;;5075005;28;20175;-86
2021/08/10 11:24:52;;;;;;;8.40;7.45;;;17.70;88.40;;;;;;5074944;28;20225;-87
2021/08/10 11:27:40;;;;;;;13.90;9.30;;;17.80;87.90;;;;;;5056733;28;20202;-86
2021/08/10 11:30:09;;;;;;;10.18;8.18;;;18.30;88.20;;;;;;5056696;28;20171;-86
2021/08/10 11:32:37;;;;;;;11.15;8.65;;;18.20;86.30;;;;;;5074557;28;20178;-87
2021/08/10 11:35:27;;;;;;;13.30;7.97;;;18.30;87.30;;;;;;5074796;28;20248;-87
2021/08/10 11:38:17;;;;;;;11.15;6.93;;;18.40;85.70;;;;;;5074518;28;20183;-88
2021/08/10 11:40:54;;;;;;;9.35;6.13;;;18.30;83.40;;;;;;5056600;28;20165;-88
2021/08/10 11:43:21;;;;;;;7.22;5.22;;;18.10;84.00;;;;;;5056810;28;20591;-88
2021/08/10 11:45:48;;;;;;;7.90;5.82;;;17.90;82.90;;;;;;5056525;28;20658;-88
2021/08/10 11:48:14;;;;;;;8.40;5.57;;;17.90;84.30;;;;;;5056392;28;20679;-87
2021/08/10 11:50:41;;;;;;;9.00;5.22;;;18.10;84.50;;;;;;5074452;28;20187;-87
2021/08/10 11:53:07;;;;;;;7.30;5.03;;;18.10;82.40;;;;;;5074807;28;20167;-87
2021/08/10 11:55:37;;;;;;;7.55;5.70;;;18.20;81.50;;;;;;5056551;28;20195;-88
2021/08/10 11:58:05;;;;;;;8.55;6.32;;;18.20;82.90;;;;;;5074034;28;20269;-87
2021/08/10 12:00:35;;;;;;;10.13;5.70;;;18.30;83.20;;;;;;5073998;28;20643;-87
2021/08/10 12:03:02;;;;;;;9.57;5.82;;;18.30;82.40;;;;;;5056222;28;20167;-87
2021/08/10 12:05:29;;;;;;;7.40;4.88;;;18.20;83.30;;;;;;5056223;28;20175;-87
2021/08/10 12:08:05;;;;;;;7.50;6.22;;;18.10;82.30;;;;;;5073790;28;20694;-87
2021/08/10 12:10:33;;;;;;;12.18;6.10;;;18.10;83.90;;;;;;5055928;28;20174;-87
2021/08/10 12:13:01;;;;;;;8.18;6.38;;;18.30;85.20;;;;;;5055863;28;20175;-87
2021/08/10 12:15:39;;;;;;;8.30;6.07;;;18.70;86.30;;;;;;5055976;28;20171;-87
2021/08/10 12:18:05;;;;;;;8.05;5.20;;;18.80;85.30;;;;;;5055843;28;20667;-87
2021/08/10 12:20:30;;;;;;;9.13;5.78;;;18.80;82.30;;;;;;5055733;28;20182;-87
2021/08/10 12:23:14;;;;;;;6.25;4.60;;;18.80;81.90;;;;;;5075031;28;20238;-87
2021/08/10 12:25:40;;;;;;;5.57;3.75;;;18.80;82.00;;;;;;5079964;28;20205;-87
2021/08/10 12:28:08;;;;;;;5.47;3.53;;;18.90;81.20;;;;;;5081285;28;20238;-87
2021/08/10 12:30:37;;;;;;;5.80;3.42;;;19.40;79.80;;;;;;5060878;28;20249;-86
2021/08/10 12:33:13;;;;;;;7.90;3.75;;;19.30;79.20;;;;;;5058473;28;20179;-86
2021/08/10 12:35:39;;;;;;;7.28;4.10;;;19.10;79.80;;;;;;5076054;28;20547;-86
2021/08/10 12:38:05;;;;;;;6.05;3.83;;;18.90;79.50;;;;;;5075672;28;20236;-87
2021/08/10 12:40:32;;;;;;;4.82;3.83;;;18.90;79.20;;;;;;5075596;28;20305;-86
2021/08/10 12:42:57;;;;;;;5.50;4.38;;;18.80;78.70;;;;;;5058255;28;20171;-86
2021/08/10 12:45:30;;;;;;;7.07;5.10;;;18.70;79.00;;;;;;5074808;28;20529;-85